createdAt,value
2022-11-03T00:00:24.274Z,79.6
2022-11-03T00:01:24.907Z,78.8
2022-11-03T00:02:25.502Z,78.6
2022-11-03T00:03:26.063Z,78.3
2022-11-03T00:04:26.665Z,78.4
2022-11-03T00:05:27.248Z,78.3
2022-11-03T00:06:27.841Z,78.6
2022-11-03T00:07:28.433Z,78.5
2022-11-03T00:08:29.027Z,79.7
2022-11-03T00:09:29.617Z,79.3
2022-11-03T00:10:30.212Z,79.6
2022-11-03T00:11:30.802Z,79.0
2022-11-03T00:12:31.396Z,78.6
2022-11-03T00:13:31.986Z,78.8
2022-11-03T00:14:32.579Z,79.9
2022-11-03T00:15:33.173Z,80.0
2022-11-03T00:16:33.790Z,80.0
2022-11-03T00:17:34.376Z,80.2
2022-11-03T00:18:34.969Z,80.4
2022-11-03T00:19:35.577Z,80.0
2022-11-03T00:20:36.169Z,80.5
2022-11-03T00:21:36.761Z,81.0
2022-11-03T00:22:37.356Z,80.8
2022-11-03T00:23:37.946Z,81.6
2022-11-03T00:24:38.539Z,81.7
2022-11-03T00:25:39.130Z,81.5
2022-11-03T00:26:39.729Z,81.5
2022-11-03T00:27:40.314Z,81.8
2022-11-03T00:28:40.908Z,82.6
2022-11-03T00:29:41.500Z,82.3
2022-11-03T00:30:42.091Z,82.6
2022-11-03T00:31:42.684Z,83.2
2022-11-03T00:32:43.275Z,84.2
2022-11-03T00:33:43.875Z,83.6
2022-11-03T00:34:44.463Z,83.4
2022-11-03T00:35:45.075Z,83.3
2022-11-03T00:36:45.666Z,83.6
2022-11-03T00:37:46.258Z,84.2
2022-11-03T00:38:46.851Z,84.5
2022-11-03T00:39:47.443Z,84.2
2022-11-03T00:40:48.037Z,84.0
2022-11-03T00:41:48.631Z,84.0
2022-11-03T00:42:49.223Z,84.2
2022-11-03T00:43:49.813Z,84.1
2022-11-03T00:44:50.408Z,84.1
2022-11-03T00:45:51.005Z,83.8
2022-11-03T00:46:51.593Z,84.3
2022-11-03T00:48:52.802Z,84.2
2022-11-03T00:49:53.395Z,85.2
2022-11-03T00:50:53.992Z,85.1
2022-11-03T00:51:54.581Z,85.3
2022-11-03T00:52:55.173Z,85.4
2022-11-03T00:53:55.765Z,85.0
2022-11-03T00:54:56.361Z,85.6
2022-11-03T00:55:56.950Z,85.9
2022-11-03T00:56:57.545Z,85.9
2022-11-03T00:57:58.136Z,85.0
2022-11-03T00:58:58.730Z,84.9
2022-11-03T00:59:59.322Z,84.9
2022-11-03T01:00:59.958Z,84.6
2022-11-03T01:02:00.611Z,85.8
2022-11-03T01:03:01.118Z,85.7
2022-11-03T01:04:01.712Z,85.1
2022-11-03T01:05:02.322Z,86.0
2022-11-03T01:06:02.911Z,86.0
2022-11-03T01:07:03.509Z,85.9
2022-11-03T01:08:04.101Z,86.3
2022-11-03T01:09:04.710Z,85.5
2022-11-03T01:10:05.302Z,85.6
2022-11-03T01:11:05.895Z,85.4
2022-11-03T01:12:06.507Z,85.5
2022-11-03T01:13:07.607Z,85.7
2022-11-03T01:14:08.406Z,85.2
2022-11-03T01:15:09.001Z,85.7
2022-11-03T01:16:09.611Z,85.3
2022-11-03T01:17:10.203Z,85.3
2022-11-03T01:18:10.815Z,85.3
2022-11-03T01:19:11.428Z,84.9
2022-11-03T01:20:12.017Z,85.8
2022-11-03T01:21:12.611Z,85.5
2022-11-03T01:22:13.205Z,85.5
2022-11-03T01:23:13.796Z,85.2
2022-11-03T01:24:14.408Z,84.9
2022-11-03T01:25:15.003Z,85.3
2022-11-03T01:26:15.598Z,84.7
2022-11-03T01:27:16.189Z,84.9
2022-11-03T01:28:16.781Z,85.7
2022-11-03T01:29:17.377Z,85.6
2022-11-03T01:30:17.970Z,85.7
2022-11-03T01:31:18.562Z,85.7
2022-11-03T01:32:19.154Z,85.8
2022-11-03T01:33:19.748Z,85.6
2022-11-03T01:34:20.339Z,85.7
2022-11-03T01:35:20.931Z,85.7
2022-11-03T01:36:21.522Z,85.9
2022-11-03T01:37:22.129Z,85.7
2022-11-03T01:38:22.709Z,85.7
2022-11-03T01:39:23.303Z,85.6
2022-11-03T01:40:23.893Z,86.2
2022-11-03T01:41:24.487Z,85.9
2022-11-03T01:42:25.079Z,86.0
2022-11-03T01:43:25.672Z,86.6
2022-11-03T01:44:26.263Z,86.7
2022-11-03T01:45:26.857Z,86.4
2022-11-03T01:46:27.449Z,86.5
2022-11-03T01:47:28.050Z,86.6
2022-11-03T01:48:28.632Z,86.3
2022-11-03T01:49:29.227Z,86.2
2022-11-03T01:50:29.819Z,86.8
2022-11-03T01:51:30.411Z,86.4
2022-11-03T01:52:31.002Z,86.5
2022-11-03T01:53:31.601Z,86.5
2022-11-03T01:54:32.186Z,86.4
2022-11-03T01:55:32.780Z,86.4
2022-11-03T01:56:33.370Z,86.6
2022-11-03T01:57:33.964Z,86.5
2022-11-03T01:58:34.556Z,86.3
2022-11-03T01:59:35.161Z,86.5
2022-11-03T02:00:35.776Z,86.7
2022-11-03T02:01:36.472Z,86.5
2022-11-03T02:02:37.074Z,86.8
2022-11-03T02:03:37.666Z,86.3
2022-11-03T02:04:38.258Z,86.3
2022-11-03T02:05:38.854Z,86.2
2022-11-03T02:06:39.459Z,86.1
2022-11-03T02:07:40.052Z,86.3
2022-11-03T02:08:40.644Z,86.7
2022-11-03T02:09:41.237Z,86.4
2022-11-03T02:10:41.837Z,86.7
2022-11-03T02:11:42.421Z,86.6
2022-11-03T02:12:43.013Z,87.0
2022-11-03T02:13:43.605Z,86.5
2022-11-03T02:14:44.201Z,86.9
2022-11-03T02:15:44.798Z,86.6
2022-11-03T02:16:47.892Z,86.9
2022-11-03T02:17:46.988Z,86.8
2022-11-03T02:18:47.580Z,87.1
2022-11-03T02:19:48.171Z,87.1
2022-11-03T02:20:48.766Z,86.8
2022-11-03T02:21:49.359Z,87.1
2022-11-03T02:22:49.951Z,86.6
2022-11-03T02:23:50.542Z,86.9
2022-11-03T02:24:53.995Z,86.6
2022-11-03T02:25:52.770Z,86.9
2022-11-03T02:26:53.362Z,86.5
2022-11-03T02:27:53.963Z,86.2
2022-11-03T02:28:54.555Z,86.6
2022-11-03T02:29:55.143Z,86.2
2022-11-03T02:30:55.735Z,86.1
2022-11-03T02:31:56.327Z,86.5
2022-11-03T02:32:56.922Z,86.4
2022-11-03T02:33:57.517Z,85.9
2022-11-03T02:34:58.107Z,86.5
2022-11-03T02:35:58.701Z,86.4
2022-11-03T02:36:59.292Z,86.5
2022-11-03T02:37:59.885Z,86.5
2022-11-03T02:39:00.487Z,86.6
2022-11-03T02:40:01.095Z,86.9
2022-11-03T02:41:01.703Z,87.4
2022-11-03T02:42:02.295Z,87.4
2022-11-03T02:43:02.972Z,87.0
2022-11-03T02:44:03.564Z,87.1
2022-11-03T02:45:04.158Z,86.9
2022-11-03T02:46:04.749Z,86.8
2022-11-03T02:47:05.341Z,86.9
2022-11-03T02:48:05.933Z,87.2
2022-11-03T02:49:06.527Z,87.1
2022-11-03T02:50:07.124Z,87.5
2022-11-03T02:51:07.712Z,87.6
2022-11-03T02:52:08.324Z,87.3
2022-11-03T02:53:09.192Z,87.4
2022-11-03T02:54:09.528Z,87.7
2022-11-03T02:55:10.126Z,87.8
2022-11-03T02:56:10.736Z,88.2
2022-11-03T02:57:11.331Z,87.7
2022-11-03T02:58:11.921Z,88.1
2022-11-03T02:59:12.518Z,87.8
2022-11-03T03:00:13.113Z,87.6
2022-11-03T03:01:13.760Z,87.8
2022-11-03T03:02:14.526Z,87.8
2022-11-03T03:03:15.100Z,88.1
2022-11-03T03:04:15.694Z,88.2
2022-11-03T03:05:16.288Z,88.1
2022-11-03T03:06:16.882Z,87.9
2022-11-03T03:07:17.476Z,87.7
2022-11-03T03:08:18.067Z,87.8
2022-11-03T03:09:18.677Z,87.8
2022-11-03T03:10:19.268Z,87.7
2022-11-03T03:11:19.911Z,88.0
2022-11-03T03:12:20.464Z,88.0
2022-11-03T03:13:21.057Z,88.1
2022-11-03T03:14:21.649Z,88.3
2022-11-03T03:15:22.243Z,88.5
2022-11-03T03:16:22.834Z,88.5
2022-11-03T03:17:23.426Z,88.3
2022-11-03T03:18:24.017Z,88.4
2022-11-03T03:19:24.613Z,88.6
2022-11-03T03:20:25.204Z,88.8
2022-11-03T03:21:25.795Z,88.7
2022-11-03T03:22:26.390Z,88.5
2022-11-03T03:23:26.986Z,88.6
2022-11-03T03:24:27.595Z,88.9
2022-11-03T03:25:28.189Z,88.5
2022-11-03T03:26:28.779Z,88.6
2022-11-03T03:27:29.376Z,88.6
2022-11-03T03:28:29.985Z,88.9
2022-11-03T03:29:30.579Z,88.3
2022-11-03T03:30:31.171Z,88.8
2022-11-03T03:31:31.767Z,89.0
2022-11-03T03:32:32.378Z,88.9
2022-11-03T03:33:32.977Z,88.2
2022-11-03T03:34:35.690Z,88.0
2022-11-03T03:35:35.149Z,88.0
2022-11-03T03:36:35.741Z,87.4
2022-11-03T03:37:36.334Z,87.4
2022-11-03T03:38:36.925Z,87.4
2022-11-03T03:39:37.520Z,87.7
2022-11-03T03:40:38.109Z,87.5
2022-11-03T03:41:38.706Z,87.7
2022-11-03T03:42:39.296Z,87.8
2022-11-03T03:43:39.896Z,88.0
2022-11-03T03:44:40.482Z,88.1
2022-11-03T03:45:41.077Z,88.0
2022-11-03T03:46:41.669Z,88.4
2022-11-03T03:47:42.261Z,88.0
2022-11-03T03:48:42.894Z,88.2
2022-11-03T03:49:43.493Z,88.1
2022-11-03T03:50:44.079Z,88.1
2022-11-03T03:51:44.673Z,88.5
2022-11-03T03:52:45.265Z,88.3
2022-11-03T03:53:45.878Z,88.6
2022-11-03T03:54:46.472Z,88.6
2022-11-03T03:55:47.066Z,88.4
2022-11-03T03:56:47.658Z,88.4
2022-11-03T03:57:48.251Z,88.3
2022-11-03T03:58:48.843Z,88.1
2022-11-03T03:59:49.433Z,88.2
2022-11-03T04:00:50.070Z,87.7
2022-11-03T04:01:50.810Z,88.1
2022-11-03T04:02:51.416Z,88.1
2022-11-03T04:03:52.009Z,87.7
2022-11-03T04:04:52.601Z,88.0
2022-11-03T04:05:53.194Z,88.0
2022-11-03T04:06:53.787Z,87.7
2022-11-03T04:07:54.386Z,87.6
2022-11-03T04:08:54.975Z,87.8
2022-11-03T04:09:55.581Z,87.7
2022-11-03T04:10:56.158Z,87.7
2022-11-03T04:11:56.753Z,87.4
2022-11-03T04:12:57.347Z,87.7
2022-11-03T04:13:57.938Z,87.6
2022-11-03T04:14:58.533Z,87.4
2022-11-03T04:15:59.125Z,87.7
2022-11-03T04:16:59.737Z,87.8
2022-11-03T04:18:00.330Z,87.7
2022-11-03T04:19:00.921Z,87.7
2022-11-03T04:20:01.537Z,87.8
2022-11-03T04:21:02.149Z,87.7
2022-11-03T04:22:02.742Z,88.0
2022-11-03T04:23:03.332Z,87.7
2022-11-03T04:24:03.925Z,87.7
2022-11-03T04:25:04.517Z,87.3
2022-11-03T04:26:05.110Z,87.5
2022-11-03T04:27:05.704Z,87.7
2022-11-03T04:28:06.695Z,87.6
2022-11-03T04:29:07.467Z,87.7
2022-11-03T04:30:08.062Z,88.2
2022-11-03T04:31:08.654Z,88.3
2022-11-03T04:32:09.248Z,88.2
2022-11-03T04:33:09.840Z,88.0
2022-11-03T04:34:10.436Z,88.5
2022-11-03T04:35:11.026Z,88.6
2022-11-03T04:36:11.621Z,88.9
2022-11-03T04:37:12.212Z,88.7
2022-11-03T04:38:12.807Z,88.7
2022-11-03T04:39:13.459Z,88.5
2022-11-03T04:40:14.052Z,89.1
2022-11-03T04:41:14.657Z,89.4
2022-11-03T04:42:15.285Z,89.2
2022-11-03T04:43:15.878Z,89.7
2022-11-03T04:44:16.472Z,89.8
2022-11-03T04:45:17.063Z,89.4
2022-11-03T04:46:17.657Z,90.3
2022-11-03T04:47:18.274Z,90.2
2022-11-03T04:48:18.864Z,89.6
2022-11-03T04:49:19.455Z,89.7
2022-11-03T04:50:20.054Z,90.4
2022-11-03T04:51:20.642Z,90.1
2022-11-03T04:52:21.257Z,90.4
2022-11-03T04:53:21.847Z,90.5
2022-11-03T04:54:22.439Z,90.2
2022-11-03T04:55:23.041Z,90.5
2022-11-03T04:56:23.626Z,90.8
2022-11-03T04:57:24.235Z,90.9
2022-11-03T04:58:24.838Z,90.6
2022-11-03T04:59:25.421Z,90.8
2022-11-03T05:00:26.015Z,90.7
2022-11-03T05:01:26.693Z,90.9
2022-11-03T05:02:27.223Z,91.2
2022-11-03T05:03:27.803Z,91.2
2022-11-03T05:04:28.417Z,91.3
2022-11-03T05:05:29.029Z,91.7
2022-11-03T05:06:29.621Z,90.9
2022-11-03T05:07:30.214Z,91.4
2022-11-03T05:08:30.809Z,91.7
2022-11-03T05:09:31.401Z,90.9
2022-11-03T05:10:31.991Z,90.4
2022-11-03T05:11:32.582Z,91.3
2022-11-03T05:12:33.194Z,91.4
2022-11-03T05:13:33.785Z,91.4
2022-11-03T05:14:34.378Z,91.5
2022-11-03T05:15:34.973Z,92.0
2022-11-03T05:16:35.563Z,91.2
2022-11-03T05:17:36.154Z,90.4
2022-11-03T05:18:36.748Z,91.7
2022-11-03T05:19:37.357Z,91.3
2022-11-03T05:20:37.969Z,92.0
2022-11-03T05:21:38.560Z,90.8
2022-11-03T05:22:39.155Z,91.9
2022-11-03T05:23:39.744Z,91.0
2022-11-03T05:24:40.339Z,91.6
2022-11-03T05:25:40.963Z,91.7
2022-11-03T05:26:41.544Z,92.4
2022-11-03T05:27:42.157Z,92.5
2022-11-03T05:28:42.750Z,92.3
2022-11-03T05:29:43.349Z,92.4
2022-11-03T05:30:43.935Z,92.4
2022-11-03T05:31:44.526Z,92.3
2022-11-03T05:32:45.120Z,91.9
2022-11-03T05:33:45.732Z,92.5
2022-11-03T05:34:46.325Z,92.2
2022-11-03T05:35:46.936Z,92.2
2022-11-03T05:36:47.550Z,92.3
2022-11-03T05:37:48.146Z,92.2
2022-11-03T05:38:48.736Z,92.5
2022-11-03T05:39:49.348Z,92.5
2022-11-03T05:40:49.962Z,92.8
2022-11-03T05:41:50.554Z,92.9
2022-11-03T05:42:51.212Z,93.0
2022-11-03T05:43:51.810Z,93.3
2022-11-03T05:44:52.417Z,92.9
2022-11-03T05:45:53.064Z,92.9
2022-11-03T05:46:53.599Z,93.2
2022-11-03T05:47:54.190Z,93.9
2022-11-03T05:48:54.784Z,93.2
2022-11-03T05:49:55.373Z,93.2
2022-11-03T05:50:55.967Z,93.2
2022-11-03T05:51:56.560Z,93.5
2022-11-03T05:52:57.151Z,93.7
2022-11-03T05:53:57.742Z,93.7
2022-11-03T05:54:58.337Z,93.8
2022-11-03T05:55:58.927Z,94.4
2022-11-03T05:56:59.523Z,94.1
2022-11-03T05:58:00.115Z,93.9
2022-11-03T05:59:00.731Z,94.0
2022-11-03T06:00:01.323Z,94.0
2022-11-03T06:01:01.917Z,93.5
2022-11-03T06:02:02.632Z,93.5
2022-11-03T06:03:03.273Z,93.5
2022-11-03T06:04:03.823Z,93.8
2022-11-03T06:05:04.418Z,93.6
2022-11-03T06:06:05.014Z,93.3
2022-11-03T06:07:05.611Z,93.1
2022-11-03T06:08:06.568Z,92.9
2022-11-03T06:09:07.320Z,93.1
2022-11-03T06:10:07.913Z,93.1
2022-11-03T06:11:08.515Z,93.3
2022-11-03T06:12:09.103Z,93.5
2022-11-03T06:13:09.879Z,93.6
2022-11-03T06:14:10.534Z,93.3
2022-11-03T06:15:11.118Z,93.3
2022-11-03T06:16:11.712Z,93.4
2022-11-03T06:17:12.312Z,93.5
2022-11-03T06:18:12.921Z,93.5
2022-11-03T06:19:13.516Z,93.5
2022-11-03T06:20:14.116Z,94.2
2022-11-03T06:21:14.710Z,93.9
2022-11-03T06:22:15.305Z,94.0
2022-11-03T06:23:15.903Z,94.1
2022-11-03T06:24:16.503Z,93.9
2022-11-03T06:25:17.119Z,93.9
2022-11-03T06:26:17.734Z,94.1
2022-11-03T06:27:18.328Z,94.3
2022-11-03T06:28:18.923Z,94.4
2022-11-03T06:29:19.520Z,94.4
2022-11-03T06:30:20.117Z,94.0
2022-11-03T06:31:23.039Z,93.8
2022-11-03T06:32:22.301Z,93.9
2022-11-03T06:33:22.897Z,94.0
2022-11-03T06:34:23.490Z,93.7
2022-11-03T06:35:24.085Z,93.8
2022-11-03T06:36:24.701Z,94.5
2022-11-03T06:37:25.298Z,93.8
2022-11-03T06:38:25.916Z,93.8
2022-11-03T06:39:26.490Z,93.8
2022-11-03T06:40:27.086Z,94.0
2022-11-03T06:41:27.685Z,94.3
2022-11-03T06:42:31.915Z,94.0
2022-11-03T06:43:29.867Z,93.2
2022-11-03T06:44:30.468Z,92.7
2022-11-03T06:45:31.062Z,92.4
2022-11-03T06:46:31.659Z,92.4
2022-11-03T06:47:32.255Z,92.6
2022-11-03T06:48:32.854Z,92.6
2022-11-03T06:49:33.451Z,92.6
2022-11-03T06:50:34.048Z,92.5
2022-11-03T06:51:34.647Z,92.7
2022-11-03T06:52:35.341Z,92.4
2022-11-03T06:53:35.932Z,92.5
2022-11-03T06:54:36.534Z,92.3
2022-11-03T06:55:37.124Z,92.2
2022-11-03T06:56:37.729Z,92.2
2022-11-03T06:57:38.323Z,91.9
2022-11-03T06:58:38.924Z,92.2
2022-11-03T06:59:39.520Z,92.0
2022-11-03T07:00:41.000Z,91.8
2022-11-03T07:01:40.877Z,92.2
2022-11-03T07:02:41.630Z,92.2
2022-11-03T07:03:42.237Z,91.9
2022-11-03T07:04:42.836Z,91.9
2022-11-03T07:05:43.433Z,91.0
2022-11-03T07:06:46.740Z,90.4
2022-11-03T07:07:44.645Z,90.4
2022-11-03T07:08:45.248Z,89.8
2022-11-03T07:09:45.841Z,90.3
2022-11-03T07:10:46.442Z,90.3
2022-11-03T07:11:47.038Z,89.7
2022-11-03T07:12:47.639Z,89.2
2022-11-03T07:13:48.262Z,88.3
2022-11-03T07:14:48.851Z,88.4
2022-11-03T07:15:49.450Z,88.4
2022-11-03T07:16:50.048Z,88.3
2022-11-03T07:17:50.647Z,88.2
2022-11-03T07:18:51.247Z,87.7
2022-11-03T07:19:51.845Z,87.2
2022-11-03T07:20:52.445Z,86.9
2022-11-03T07:21:53.066Z,86.7
2022-11-03T07:22:53.662Z,86.4
2022-11-03T07:23:54.260Z,87.0
2022-11-03T07:24:54.877Z,86.9
2022-11-03T07:25:55.477Z,87.1
2022-11-03T07:26:56.075Z,87.0
2022-11-03T07:27:56.674Z,86.6
2022-11-03T07:28:57.278Z,86.9
2022-11-03T07:29:57.868Z,86.6
2022-11-03T07:30:58.471Z,86.7
2022-11-03T07:31:59.080Z,86.9
2022-11-03T07:32:59.699Z,87.0
2022-11-03T07:34:00.300Z,87.4
2022-11-03T07:35:00.896Z,87.3
2022-11-03T07:36:17.288Z,87.3
2022-11-03T07:37:03.138Z,87.5
2022-11-03T07:38:03.884Z,87.5
2022-11-03T07:39:04.536Z,87.3
2022-11-03T07:40:05.134Z,88.1
2022-11-03T07:41:05.735Z,88.2
2022-11-03T07:42:06.333Z,88.3
2022-11-03T07:43:06.933Z,88.3
2022-11-03T07:44:07.531Z,88.5
2022-11-03T07:45:08.131Z,88.1
2022-11-03T07:46:08.729Z,88.1
2022-11-03T07:47:09.329Z,88.1
2022-11-03T07:48:10.403Z,88.0
2022-11-03T07:49:11.111Z,88.1
2022-11-03T07:50:11.709Z,88.3
2022-11-03T07:51:12.310Z,87.5
2022-11-03T07:52:12.907Z,88.1
2022-11-03T07:53:13.511Z,87.8
2022-11-03T07:54:14.137Z,87.5
2022-11-03T07:55:14.728Z,88.1
2022-11-03T07:56:15.454Z,88.3
2022-11-03T07:57:16.116Z,88.0
2022-11-03T07:58:16.719Z,87.7
2022-11-03T07:59:17.357Z,87.6
2022-11-03T08:00:17.934Z,87.4
2022-11-03T08:01:18.612Z,88.1
2022-11-03T08:02:19.261Z,87.9
2022-11-03T08:03:19.851Z,88.0
2022-11-03T08:04:20.450Z,87.9
2022-11-03T08:05:21.080Z,87.6
2022-11-03T08:06:21.668Z,87.5
2022-11-03T08:07:22.268Z,87.2
2022-11-03T08:08:22.865Z,87.3
2022-11-03T08:09:23.463Z,87.5
2022-11-03T08:10:24.134Z,87.7
2022-11-03T08:11:27.993Z,87.5
2022-11-03T08:12:26.264Z,87.4
2022-11-03T08:13:26.861Z,87.3
2022-11-03T08:14:27.457Z,87.5
2022-11-03T08:15:28.059Z,87.5
2022-11-03T08:16:28.678Z,87.3
2022-11-03T08:17:29.278Z,87.3
2022-11-03T08:18:29.897Z,87.6
2022-11-03T08:19:30.523Z,87.5
2022-11-03T08:20:31.119Z,87.6
2022-11-03T08:21:31.741Z,87.5
2022-11-03T08:22:32.338Z,87.3
2022-11-03T08:23:33.517Z,87.3
2022-11-03T08:24:34.332Z,87.9
2022-11-03T08:25:34.932Z,87.7
2022-11-03T08:26:35.530Z,87.1
2022-11-03T08:27:36.130Z,87.1
2022-11-03T08:28:36.728Z,86.8
2022-11-03T08:29:37.344Z,86.3
2022-11-03T08:30:37.944Z,86.4
2022-11-03T08:31:38.544Z,86.4
2022-11-03T08:32:39.144Z,86.0
2022-11-03T08:33:39.750Z,86.0
2022-11-03T08:34:40.344Z,86.2
2022-11-03T08:35:40.951Z,86.0
2022-11-03T08:36:41.545Z,85.8
2022-11-03T08:37:42.144Z,85.0
2022-11-03T08:38:42.744Z,85.5
2022-11-03T08:39:43.343Z,85.3
2022-11-03T08:40:43.944Z,85.3
2022-11-03T08:41:44.542Z,85.4
2022-11-03T08:42:45.143Z,84.7
2022-11-03T08:43:45.759Z,85.3
2022-11-03T08:44:46.358Z,84.8
2022-11-03T08:45:46.978Z,84.9
2022-11-03T08:46:47.561Z,84.5
2022-11-03T08:47:48.163Z,84.7
2022-11-03T08:48:48.782Z,83.9
2022-11-03T08:49:49.386Z,83.9
2022-11-03T08:50:49.982Z,83.5
2022-11-03T08:51:50.585Z,83.2
2022-11-03T08:52:51.238Z,84.1
2022-11-03T08:53:51.863Z,82.8
2022-11-03T08:54:52.515Z,82.9
2022-11-03T08:55:53.081Z,82.1
2022-11-03T08:56:53.680Z,82.3
2022-11-03T08:57:54.281Z,82.1
2022-11-03T08:58:54.877Z,81.9
2022-11-03T08:59:55.478Z,82.4
2022-11-03T09:00:56.078Z,82.3
2022-11-03T09:01:56.775Z,82.4
2022-11-03T09:02:57.311Z,81.9
2022-11-03T09:03:58.039Z,82.7
2022-11-03T09:04:58.696Z,82.0
2022-11-03T09:05:59.299Z,82.1
2022-11-03T09:06:59.894Z,82.1
2022-11-03T09:10:20.352Z,81.6
2022-11-03T09:11:05.273Z,81.9
2022-11-03T09:12:05.874Z,81.5
2022-11-03T09:13:06.782Z,81.6
2022-11-03T09:14:07.407Z,80.9
2022-11-03T09:15:08.026Z,81.0
2022-11-03T09:16:08.636Z,81.3
2022-11-03T09:17:09.236Z,81.5
2022-11-03T09:18:10.130Z,80.4
2022-11-03T09:19:10.815Z,80.1
2022-11-03T09:20:11.415Z,80.4
2022-11-03T09:21:12.015Z,80.1
2022-11-03T09:22:12.614Z,80.5
2022-11-03T09:23:13.215Z,81.3
2022-11-03T09:24:13.815Z,80.8
2022-11-03T09:25:14.412Z,80.8
2022-11-03T09:26:15.019Z,81.1
2022-11-03T09:27:15.617Z,81.1
2022-11-03T09:28:16.213Z,81.0
2022-11-03T09:29:16.813Z,81.1
2022-11-03T09:30:17.414Z,81.3
2022-11-03T09:31:18.022Z,81.1
2022-11-03T09:32:22.977Z,80.7
2022-11-03T09:33:20.226Z,80.4
2022-11-03T09:34:20.827Z,80.2
2022-11-03T09:35:21.425Z,79.9
2022-11-03T09:36:22.029Z,78.8
2022-11-03T09:37:22.625Z,79.8
2022-11-03T09:38:23.225Z,80.0
2022-11-03T09:39:23.832Z,79.4
2022-11-03T09:40:24.422Z,79.4
2022-11-03T09:41:27.802Z,79.8
2022-11-03T09:42:26.615Z,79.6
2022-11-03T09:43:27.234Z,79.6
2022-11-03T09:44:27.833Z,80.0
2022-11-03T09:45:28.462Z,80.0
2022-11-03T09:46:29.055Z,79.5
2022-11-03T09:47:29.651Z,80.0
2022-11-03T09:48:30.252Z,79.2
2022-11-03T09:49:30.848Z,78.5
2022-11-03T09:50:31.451Z,79.4
2022-11-03T09:51:32.049Z,79.9
2022-11-03T09:52:32.648Z,79.7
2022-11-03T09:53:33.249Z,80.2
2022-11-03T09:54:33.849Z,79.5
2022-11-03T09:55:34.472Z,80.0
2022-11-03T09:56:35.075Z,79.2
2022-11-03T09:57:35.674Z,79.6
2022-11-03T09:58:36.273Z,80.1
2022-11-03T09:59:36.874Z,79.9
2022-11-03T10:00:37.478Z,80.3
2022-11-03T10:01:38.217Z,79.7
2022-11-03T10:02:38.845Z,79.9
2022-11-03T10:03:39.448Z,79.9
2022-11-03T10:04:40.065Z,79.1
2022-11-03T10:05:40.665Z,80.1
2022-11-03T10:06:41.266Z,79.9
2022-11-03T10:07:41.907Z,79.9
2022-11-03T10:08:42.473Z,79.2
2022-11-03T10:09:43.067Z,79.9
2022-11-03T10:10:43.670Z,79.2
2022-11-03T10:11:44.270Z,79.5
2022-11-03T10:12:44.894Z,78.6
2022-11-03T10:13:45.490Z,77.9
2022-11-03T10:14:46.093Z,79.2
2022-11-03T10:15:46.710Z,79.4
2022-11-03T10:16:52.330Z,78.7
2022-11-03T10:17:48.901Z,79.5
2022-11-03T10:18:49.510Z,78.7
2022-11-03T10:19:50.104Z,79.4
2022-11-03T10:20:50.703Z,79.3
2022-11-03T10:21:51.303Z,78.3
2022-11-03T10:22:51.903Z,78.5
2022-11-03T10:23:52.504Z,78.6
2022-11-03T10:24:53.123Z,77.9
2022-11-03T10:25:53.721Z,79.3
2022-11-03T10:26:54.323Z,79.5
2022-11-03T10:27:54.924Z,79.5
2022-11-03T10:28:55.544Z,79.2
2022-11-03T10:29:57.992Z,78.1
2022-11-03T10:31:13.702Z,78.2
2022-11-03T10:31:59.331Z,79.2
2022-11-03T10:32:59.934Z,78.9
2022-11-03T10:34:00.549Z,79.1
2022-11-03T10:35:01.147Z,78.9
2022-11-03T10:36:01.747Z,79.0
2022-11-03T10:37:02.345Z,79.6
2022-11-03T10:38:02.943Z,79.9
2022-11-03T10:39:03.546Z,79.7
2022-11-03T10:40:06.868Z,79.7
2022-11-03T10:41:05.735Z,79.2
2022-11-03T10:42:06.333Z,78.2
2022-11-03T10:43:07.186Z,79.1
2022-11-03T10:44:07.580Z,79.9
2022-11-03T10:45:08.173Z,79.0
2022-11-03T10:46:23.382Z,79.3
2022-11-03T10:47:10.362Z,78.0
2022-11-03T10:48:10.962Z,78.2
2022-11-03T10:49:11.563Z,77.8
2022-11-03T10:50:12.161Z,79.1
2022-11-03T10:51:12.760Z,79.2
2022-11-03T10:52:13.360Z,79.3
2022-11-03T10:53:13.980Z,79.7
2022-11-03T10:54:14.560Z,79.8
2022-11-03T10:55:17.074Z,80.3
2022-11-03T10:56:16.752Z,80.1
2022-11-03T10:57:17.350Z,80.3
2022-11-03T10:58:17.953Z,79.9
2022-11-03T10:59:18.570Z,80.2
2022-11-03T11:00:19.190Z,81.0
2022-11-03T11:01:19.844Z,80.7
2022-11-03T11:02:20.551Z,81.1
2022-11-03T11:03:21.360Z,81.2
2022-11-03T11:04:21.823Z,81.0
2022-11-03T11:05:22.426Z,81.1
2022-11-03T11:06:23.027Z,81.2
2022-11-03T11:07:23.645Z,81.0
2022-11-03T11:08:24.285Z,80.7
2022-11-03T11:09:24.948Z,80.5
2022-11-03T11:10:25.547Z,81.1
2022-11-03T11:11:26.146Z,81.3
2022-11-03T11:12:26.746Z,81.4
2022-11-03T11:13:27.344Z,81.4
2022-11-03T11:14:27.944Z,80.8
2022-11-03T11:15:28.543Z,81.0
2022-11-03T11:16:29.161Z,81.3
2022-11-03T11:17:29.759Z,81.6
2022-11-03T11:18:30.383Z,81.4
2022-11-03T11:19:30.960Z,80.8
2022-11-03T11:20:31.563Z,80.9
2022-11-03T11:21:34.801Z,80.9
2022-11-03T11:22:33.753Z,80.8
2022-11-03T11:23:34.350Z,81.7
2022-11-03T11:24:34.950Z,80.7
2022-11-03T11:25:35.550Z,81.1
2022-11-03T11:26:36.152Z,81.6
2022-11-03T11:27:36.751Z,81.5
2022-11-03T11:28:37.355Z,81.8
2022-11-03T11:29:37.952Z,81.5
2022-11-03T11:30:38.554Z,80.7
2022-11-03T11:31:39.155Z,80.7
2022-11-03T11:32:39.755Z,80.8
2022-11-03T11:33:40.351Z,80.8
2022-11-03T11:34:40.977Z,80.7
2022-11-03T11:35:41.591Z,81.1
2022-11-03T11:36:42.194Z,80.7
2022-11-03T11:37:42.793Z,80.8
2022-11-03T11:38:43.394Z,80.7
2022-11-03T11:39:43.996Z,80.8
2022-11-03T11:40:44.594Z,80.6
2022-11-03T11:41:45.213Z,81.1
2022-11-03T11:42:45.815Z,80.3
2022-11-03T11:43:46.433Z,80.3
2022-11-03T11:44:47.032Z,80.2
2022-11-03T11:45:47.629Z,80.3
2022-11-03T11:46:48.230Z,80.3
2022-11-03T11:47:48.830Z,80.9
2022-11-03T11:48:49.430Z,81.1
2022-11-03T11:49:50.027Z,79.8
2022-11-03T11:50:50.647Z,80.1
2022-11-03T11:51:51.248Z,80.1
2022-11-03T11:52:51.849Z,79.8
2022-11-03T11:54:16.219Z,79.7
2022-11-03T11:54:54.043Z,79.8
2022-11-03T11:55:54.645Z,80.1
2022-11-03T11:56:55.243Z,80.9
2022-11-03T11:57:55.843Z,81.1
2022-11-03T11:58:56.459Z,81.1
2022-11-03T11:59:57.044Z,80.9
2022-11-03T12:00:57.643Z,81.0
2022-11-03T12:01:58.288Z,80.8
2022-11-03T12:02:58.927Z,80.9
2022-11-03T12:03:59.660Z,81.2
2022-11-03T12:05:00.289Z,80.6
2022-11-03T12:06:00.882Z,81.0
2022-11-03T12:07:01.490Z,81.2
2022-11-03T12:08:02.090Z,81.0
2022-11-03T12:09:02.682Z,80.9
2022-11-03T12:10:03.281Z,80.9
2022-11-03T12:11:03.964Z,80.9
2022-11-03T12:12:08.628Z,80.1
2022-11-03T12:13:06.160Z,80.7
2022-11-03T12:14:06.762Z,80.6
2022-11-03T12:15:07.361Z,81.0
2022-11-03T12:16:08.020Z,80.9
2022-11-03T12:17:08.610Z,80.8
2022-11-03T12:18:09.513Z,80.8
2022-11-03T12:19:10.202Z,80.7
2022-11-03T12:20:10.852Z,80.6
2022-11-03T12:21:11.436Z,80.9
2022-11-03T12:22:12.036Z,81.0
2022-11-03T12:23:12.637Z,80.8
2022-11-03T12:24:13.235Z,80.5
2022-11-03T12:25:13.837Z,80.7
2022-11-03T12:26:14.432Z,80.3
2022-11-03T12:27:15.032Z,80.8
2022-11-03T12:28:15.632Z,80.1
2022-11-03T12:29:16.234Z,80.1
2022-11-03T12:30:16.834Z,80.5
2022-11-03T12:31:17.435Z,80.8
2022-11-03T12:32:32.891Z,80.8
2022-11-03T12:33:19.628Z,80.8
2022-11-03T12:34:20.225Z,80.3
2022-11-03T12:35:20.838Z,80.2
2022-11-03T12:36:21.436Z,80.1
2022-11-03T12:37:22.040Z,80.3
2022-11-03T12:38:22.639Z,80.9
2022-11-03T12:39:23.260Z,80.9
2022-11-03T12:40:23.857Z,81.1
2022-11-03T12:41:24.462Z,80.9
2022-11-03T12:42:25.391Z,80.6
2022-11-03T12:43:26.127Z,81.0
2022-11-03T12:44:26.779Z,81.0
2022-11-03T12:45:27.370Z,80.8
2022-11-03T12:46:27.969Z,80.9
2022-11-03T12:47:28.567Z,80.6
2022-11-03T12:48:29.168Z,81.0
2022-11-03T12:49:29.767Z,80.9
2022-11-03T12:50:30.366Z,80.1
2022-11-03T12:51:30.969Z,80.7
2022-11-03T12:52:31.567Z,80.8
2022-11-03T12:53:32.164Z,80.8
2022-11-03T12:54:32.766Z,81.0
2022-11-03T12:55:33.388Z,80.9
2022-11-03T12:56:33.985Z,81.1
2022-11-03T12:57:34.586Z,81.0
2022-11-03T12:58:35.204Z,80.9
2022-11-03T12:59:35.804Z,80.9
2022-11-03T13:00:36.425Z,80.3
2022-11-03T13:01:37.166Z,80.6
2022-11-03T13:02:37.997Z,81.1
2022-11-03T13:03:38.651Z,81.0
2022-11-03T13:04:39.251Z,80.0
2022-11-03T13:05:39.852Z,80.2
2022-11-03T13:06:40.452Z,80.3
2022-11-03T13:07:41.053Z,80.6
2022-11-03T13:08:41.653Z,80.3
2022-11-03T13:09:42.281Z,81.6
2022-11-03T13:10:42.870Z,81.0
2022-11-03T13:11:43.471Z,81.0
2022-11-03T13:12:44.070Z,80.5
2022-11-03T13:13:44.689Z,80.1
2022-11-03T13:14:46.301Z,81.0
2022-11-03T13:15:46.880Z,80.6
2022-11-03T13:16:47.476Z,80.9
2022-11-03T13:18:49.667Z,81.2
2022-11-03T13:19:54.480Z,81.2
2022-11-03T13:20:51.860Z,80.1
2022-11-03T13:21:52.476Z,81.5
2022-11-03T13:22:53.080Z,81.4
2022-11-03T13:23:53.674Z,81.6
2022-11-03T13:24:54.271Z,81.8
2022-11-03T13:25:54.961Z,81.8
2022-11-03T13:26:55.525Z,81.8
2022-11-03T13:27:56.145Z,81.7
2022-11-03T13:28:56.745Z,80.6
2022-11-03T13:29:57.347Z,80.9
2022-11-03T13:30:57.945Z,79.9